Time;durP1;ratioP1;P1;durP2;ratioP2;P2;SDS_P1;SDS_P2;PMS_P1;PMS_P2;Temp;Humidity;BMP_temperature;BMP_pressure;BME280_temperature;BME280_humidity;BME280_pressure;Samples;Min_cycle;Max_cycle;Signal;HPM_P1;HPM_P2
2023/03/19 00:02:10;;;;;;;9.18;3.40;;;;;;;;;;5037295;28;20047;-44
2023/03/19 00:04:35;;;;;;;5.57;2.90;;;;;;;;;;5037705;28;20021;-40
2023/03/19 00:07:00;;;;;;;5.80;2.75;;;;;;;;;;5036459;28;20490;-42
2023/03/19 00:09:26;;;;;;;9.93;3.00;;;;;;;;;;5034491;28;20037;-41
2023/03/19 00:11:52;;;;;;;5.35;2.75;;;;;;;;;;5034106;28;20525;-43
2023/03/19 00:14:17;;;;;;;5.75;3.05;;;;;;;;;;5033833;28;20037;-44
2023/03/19 00:16:43;;;;;;;7.93;2.75;;;;;;;;;;5035466;28;20038;-46
2023/03/19 00:19:09;;;;;;;10.77;2.90;;;;;;;;;;5035517;28;20397;-45
2023/03/19 00:21:34;;;;;;;7.97;2.60;;;;;;;;;;5038837;28;20046;-46
2023/03/19 00:24:01;;;;;;;6.05;2.15;;;;;;;;;;5037214;28;20529;-41
2023/03/19 00:26:31;;;;;;;8.07;2.60;;;;;;;;;;5035278;28;20143;-44
2023/03/19 00:28:57;;;;;;;4.18;2.58;;;;;;;;;;5036112;28;20047;-41
2023/03/19 00:31:24;;;;;;;4.57;2.50;;;;;;;;;;5039984;28;20147;-44
2023/03/19 00:33:49;;;;;;;14.10;3.22;;;;;;;;;;5038779;28;20139;-43
2023/03/19 00:36:16;;;;;;;9.32;2.65;;;;;;;;;;5035669;28;20504;-43
2023/03/19 00:38:43;;;;;;;12.15;2.53;;;;;;;;;;5033061;28;20026;-46
2023/03/19 00:41:09;;;;;;;9.30;2.50;;;;;;;;;;5039564;28;20382;-44
2023/03/19 00:43:36;;;;;;;9.70;2.75;;;;;;;;;;5035200;28;20533;-41
2023/03/19 00:46:02;;;;;;;7.88;2.92;;;;;;;;;;5033713;28;20087;-46
2023/03/19 00:48:27;;;;;;;11.18;2.90;;;;;;;;;;5042705;28;20049;-42
2023/03/19 00:50:53;;;;;;;10.15;3.83;;;;;;;;;;5038594;28;20013;-41
2023/03/19 00:53:19;;;;;;;9.15;2.95;;;;;;;;;;5039115;28;20052;-42
2023/03/19 00:55:45;;;;;;;8.15;3.25;;;;;;;;;;5036482;28;20288;-44
2023/03/19 00:58:10;;;;;;;11.23;3.25;;;;;;;;;;5034847;28;20037;-42
2023/03/19 01:00:37;;;;;;;8.85;2.30;;;;;;;;;;5038335;28;20036;-40
2023/03/19 01:03:04;;;;;;;6.55;2.72;;;;;;;;;;5033288;28;20086;-40
2023/03/19 01:05:30;;;;;;;5.57;2.22;;;;;;;;;;5039710;28;20064;-41
2023/03/19 01:07:55;;;;;;;6.22;2.35;;;;;;;;;;5037824;28;20069;-44
2023/03/19 01:10:23;;;;;;;8.80;2.60;;;;;;;;;;5040191;28;20028;-41
2023/03/19 01:12:49;;;;;;;6.40;3.05;;;;;;;;;;5036889;28;20041;-40
2023/03/19 01:15:15;;;;;;;9.38;2.80;;;;;;;;;;5039141;28;20120;-41
2023/03/19 01:17:41;;;;;;;8.93;2.42;;;;;;;;;;5041720;28;20048;-41
2023/03/19 01:20:11;;;;;;;10.25;2.80;;;;;;;;;;5032122;28;20029;-44
2023/03/19 01:22:38;;;;;;;9.85;2.90;;;;;;;;;;5036202;28;20033;-43
2023/03/19 01:25:04;;;;;;;4.85;2.58;;;;;;;;;;5036403;28;20045;-47
2023/03/19 01:27:30;;;;;;;6.45;2.67;;;;;;;;;;5035818;28;20037;-44
2023/03/19 01:29:55;;;;;;;6.85;2.55;;;;;;;;;;5039497;28;20033;-45
2023/03/19 01:32:22;;;;;;;7.63;2.58;;;;;;;;;;5035477;28;20053;-43
2023/03/19 01:34:47;;;;;;;7.47;2.97;;;;;;;;;;5036801;28;20037;-41
2023/03/19 01:37:12;;;;;;;13.60;2.67;;;;;;;;;;5035847;28;20041;-44
2023/03/19 01:39:38;;;;;;;8.90;2.58;;;;;;;;;;5038859;28;20030;-48
2023/03/19 01:42:03;;;;;;;6.68;2.95;;;;;;;;;;5034411;28;20049;-44
2023/03/19 01:44:32;;;;;;;10.73;3.03;;;;;;;;;;5037848;28;20383;-46
2023/03/19 01:47:01;;;;;;;7.85;3.00;;;;;;;;;;5041273;28;20098;-44
2023/03/19 01:49:29;;;;;;;9.65;3.35;;;;;;;;;;5038722;28;20633;-42
2023/03/19 01:51:58;;;;;;;11.55;3.40;;;;;;;;;;5040148;28;20033;-44
2023/03/19 01:54:25;;;;;;;7.80;3.00;;;;;;;;;;5032310;28;20040;-47
2023/03/19 01:56:57;;;;;;;8.15;3.47;;;;;;;;;;5036887;28;20045;-50
2023/03/19 01:59:27;;;;;;;10.90;3.20;;;;;;;;;;5032555;28;20041;-45
2023/03/19 02:02:13;;;;;;;6.88;3.38;;;;;;;;;;5035915;28;20047;-48
2023/03/19 02:04:42;;;;;;;8.80;3.38;;;;;;;;;;5029115;28;20049;-50
2023/03/19 02:07:10;;;;;;;9.32;4.00;;;;;;;;;;5037316;28;22176;-47
2023/03/19 02:09:36;;;;;;;13.73;3.50;;;;;;;;;;5035751;28;20035;-46
2023/03/19 02:12:01;;;;;;;8.38;3.40;;;;;;;;;;5033303;28;20041;-50
2023/03/19 02:14:27;;;;;;;7.25;2.83;;;;;;;;;;5037033;28;20033;-47
2023/03/19 02:16:53;;;;;;;11.93;4.20;;;;;;;;;;5034736;28;20394;-42
2023/03/19 02:19:29;;;;;;;7.15;3.50;;;;;;;;;;5029948;28;20057;-48
2023/03/19 02:21:55;;;;;;;11.15;3.72;;;;;;;;;;5035699;28;20079;-47
2023/03/19 02:24:32;;;;;;;7.03;3.30;;;;;;;;;;5037212;28;20069;-45
2023/03/19 02:26:58;;;;;;;7.57;3.78;;;;;;;;;;5035625;28;20565;-43
2023/03/19 02:29:23;;;;;;;15.23;4.13;;;;;;;;;;5039593;28;20120;-43
2023/03/19 02:31:49;;;;;;;7.90;3.10;;;;;;;;;;5034177;28;20064;-45
2023/03/19 02:34:17;;;;;;;14.68;3.85;;;;;;;;;;5038670;28;20025;-43
2023/03/19 02:36:47;;;;;;;9.20;3.33;;;;;;;;;;5035052;28;20608;-44
2023/03/19 02:39:42;;;;;;;14.18;3.47;;;;;;;;;;5036943;28;20360;-45
2023/03/19 02:42:10;;;;;;;5.93;3.10;;;;;;;;;;5033780;28;20389;-41
2023/03/19 02:44:36;;;;;;;10.75;3.65;;;;;;;;;;5033124;28;20024;-41
2023/03/19 02:47:02;;;;;;;12.73;3.53;;;;;;;;;;5029476;28;20104;-41
2023/03/19 02:49:28;;;;;;;10.68;3.13;;;;;;;;;;5036198;28;20033;-41
2023/03/19 02:51:53;;;;;;;10.55;3.92;;;;;;;;;;5037350;28;20052;-42
2023/03/19 02:54:19;;;;;;;12.23;3.55;;;;;;;;;;5037423;28;20557;-41
2023/03/19 02:56:45;;;;;;;13.25;3.38;;;;;;;;;;5032099;28;20072;-42
2023/03/19 02:59:10;;;;;;;7.13;3.20;;;;;;;;;;5035110;28;20032;-45
2023/03/19 03:01:36;;;;;;;5.97;3.63;;;;;;;;;;5037246;28;20489;-43
2023/03/19 03:04:01;;;;;;;6.95;3.50;;;;;;;;;;5032488;28;20040;-41
2023/03/19 03:06:27;;;;;;;7.38;3.45;;;;;;;;;;5035614;28;20049;-44
2023/03/19 03:08:52;;;;;;;10.88;3.80;;;;;;;;;;5034521;28;20485;-43
2023/03/19 03:11:17;;;;;;;9.63;3.95;;;;;;;;;;5036453;28;20049;-41
2023/03/19 03:13:43;;;;;;;10.90;4.20;;;;;;;;;;5031147;28;20461;-43
2023/03/19 03:16:09;;;;;;;9.52;3.50;;;;;;;;;;5033201;28;20109;-41
2023/03/19 03:18:35;;;;;;;7.70;3.60;;;;;;;;;;5030285;28;20025;-45
2023/03/19 03:21:00;;;;;;;12.00;3.40;;;;;;;;;;5034244;28;20146;-41
2023/03/19 03:23:26;;;;;;;7.97;3.45;;;;;;;;;;5036302;28;20119;-41
2023/03/19 03:25:52;;;;;;;9.20;3.22;;;;;;;;;;5035511;28;20111;-41
2023/03/19 03:28:18;;;;;;;15.77;4.28;;;;;;;;;;5036475;28;20405;-42
2023/03/19 03:30:45;;;;;;;14.57;3.80;;;;;;;;;;5034996;28;20052;-43
2023/03/19 03:33:11;;;;;;;6.85;3.65;;;;;;;;;;5041525;28;20402;-41
2023/03/19 03:35:36;;;;;;;10.30;3.78;;;;;;;;;;5038929;28;20051;-41
2023/03/19 03:38:03;;;;;;;11.63;4.18;;;;;;;;;;5042471;28;20051;-43
2023/03/19 03:40:29;;;;;;;9.57;4.07;;;;;;;;;;5045734;28;20029;-41
2023/03/19 03:42:54;;;;;;;9.27;3.85;;;;;;;;;;5040410;28;20291;-43
2023/03/19 03:45:20;;;;;;;9.52;4.53;;;;;;;;;;5042062;28;20082;-43
2023/03/19 03:47:46;;;;;;;9.82;4.35;;;;;;;;;;5035671;28;20099;-43
2023/03/19 03:50:12;;;;;;;12.52;5.07;;;;;;;;;;5039976;28;20102;-41
2023/03/19 03:52:38;;;;;;;14.85;4.95;;;;;;;;;;5040634;28;20049;-41
2023/03/19 03:55:04;;;;;;;14.75;5.35;;;;;;;;;;5041485;28;20086;-42
2023/03/19 03:57:29;;;;;;;20.50;4.40;;;;;;;;;;5043558;28;20037;-40
2023/03/19 03:59:55;;;;;;;11.05;4.00;;;;;;;;;;5041175;28;20033;-42
2023/03/19 04:02:20;;;;;;;11.07;4.20;;;;;;;;;;5040843;28;20498;-44
2023/03/19 04:04:46;;;;;;;9.32;4.57;;;;;;;;;;5038897;28;20036;-47
2023/03/19 04:07:12;;;;;;;15.90;4.35;;;;;;;;;;5036990;28;20064;-49
2023/03/19 04:09:37;;;;;;;8.68;3.78;;;;;;;;;;5040078;28;20448;-42
2023/03/19 04:12:03;;;;;;;10.50;3.65;;;;;;;;;;5039381;28;20373;-43
2023/03/19 04:14:28;;;;;;;8.45;4.13;;;;;;;;;;5042127;28;20101;-42
2023/03/19 04:16:54;;;;;;;11.27;3.67;;;;;;;;;;5040615;28;20045;-43
2023/03/19 04:19:19;;;;;;;9.23;3.60;;;;;;;;;;5034594;28;20025;-47
2023/03/19 04:21:45;;;;;;;4.95;3.38;;;;;;;;;;5037689;28;20548;-45
2023/03/19 04:24:11;;;;;;;9.57;3.80;;;;;;;;;;5038845;28;20032;-48
2023/03/19 04:26:36;;;;;;;8.60;3.63;;;;;;;;;;5039764;28;20033;-48
2023/03/19 04:29:02;;;;;;;7.30;3.38;;;;;;;;;;5041670;28;20032;-44
2023/03/19 04:31:28;;;;;;;9.40;3.25;;;;;;;;;;5037679;28;20073;-47
2023/03/19 04:33:54;;;;;;;7.13;3.30;;;;;;;;;;5037506;28;20112;-48
2023/03/19 04:36:19;;;;;;;8.85;3.20;;;;;;;;;;5041303;28;20061;-49
2023/03/19 04:38:45;;;;;;;11.80;3.30;;;;;;;;;;5032411;28;20032;-44
2023/03/19 04:41:12;;;;;;;7.65;3.08;;;;;;;;;;5037991;28;20033;-42
2023/03/19 04:43:38;;;;;;;7.47;3.03;;;;;;;;;;5035386;28;20032;-45
2023/03/19 04:46:05;;;;;;;5.63;3.28;;;;;;;;;;5039324;28;20025;-47
2023/03/19 04:48:32;;;;;;;9.70;3.42;;;;;;;;;;5041543;28;20071;-42
2023/03/19 04:50:58;;;;;;;8.73;4.05;;;;;;;;;;5034620;28;20505;-45
2023/03/19 04:53:24;;;;;;;9.02;3.10;;;;;;;;;;5038934;28;20029;-47
2023/03/19 04:55:50;;;;;;;12.50;3.47;;;;;;;;;;5034330;28;20025;-45
2023/03/19 04:58:16;;;;;;;6.88;3.60;;;;;;;;;;5040074;28;20111;-48
2023/03/19 05:00:41;;;;;;;7.82;3.30;;;;;;;;;;5035234;28;20032;-47
2023/03/19 05:03:07;;;;;;;7.50;3.13;;;;;;;;;;5035830;28;20033;-47
2023/03/19 05:05:32;;;;;;;10.05;4.15;;;;;;;;;;5035363;28;20072;-48
2023/03/19 05:07:58;;;;;;;13.48;3.00;;;;;;;;;;5037514;28;20041;-46
2023/03/19 05:10:23;;;;;;;7.13;3.40;;;;;;;;;;5039239;28;20021;-48
2023/03/19 05:12:49;;;;;;;7.13;3.15;;;;;;;;;;5036325;28;20062;-47
2023/03/19 05:15:14;;;;;;;4.60;2.72;;;;;;;;;;5035604;28;20513;-46
2023/03/19 05:17:40;;;;;;;8.65;3.05;;;;;;;;;;5034338;28;20040;-48
2023/03/19 05:20:06;;;;;;;4.85;3.10;;;;;;;;;;5036701;28;20120;-45
2023/03/19 05:22:33;;;;;;;6.65;3.00;;;;;;;;;;5032664;28;20429;-48
2023/03/19 05:24:58;;;;;;;9.45;3.05;;;;;;;;;;5039943;28;20037;-47
2023/03/19 05:27:24;;;;;;;6.18;2.90;;;;;;;;;;5039664;28;20037;-44
2023/03/19 05:29:49;;;;;;;11.07;2.40;;;;;;;;;;5034029;28;20021;-47
2023/03/19 05:32:14;;;;;;;9.43;2.92;;;;;;;;;;5037382;28;20038;-46
2023/03/19 05:34:40;;;;;;;7.72;2.53;;;;;;;;;;5034744;28;20026;-48
2023/03/19 05:37:07;;;;;;;6.80;2.47;;;;;;;;;;5035838;28;20398;-45
2023/03/19 05:39:32;;;;;;;4.72;2.83;;;;;;;;;;5034538;28;20033;-42
2023/03/19 05:41:58;;;;;;;7.07;3.03;;;;;;;;;;5038908;28;20037;-43
2023/03/19 05:44:23;;;;;;;6.60;2.80;;;;;;;;;;5035525;28;20029;-48
2023/03/19 05:46:49;;;;;;;9.15;3.33;;;;;;;;;;5038596;28;20095;-49
2023/03/19 05:49:14;;;;;;;6.95;2.70;;;;;;;;;;5033614;28;20022;-47
2023/03/19 05:51:39;;;;;;;7.47;2.85;;;;;;;;;;5036286;28;20509;-46
2023/03/19 05:54:05;;;;;;;7.03;2.75;;;;;;;;;;5037964;28;20026;-47
2023/03/19 05:56:30;;;;;;;5.90;3.20;;;;;;;;;;5038811;28;20042;-45
2023/03/19 05:58:56;;;;;;;8.50;2.83;;;;;;;;;;5033344;28;20021;-45
2023/03/19 06:01:21;;;;;;;6.13;2.83;;;;;;;;;;5030320;28;20061;-42
2023/03/19 06:03:47;;;;;;;7.20;3.05;;;;;;;;;;5033635;28;20032;-44
2023/03/19 06:06:13;;;;;;;10.50;3.40;;;;;;;;;;5037772;28;20029;-41
2023/03/19 06:08:38;;;;;;;9.15;2.92;;;;;;;;;;5036560;28;20056;-43
2023/03/19 06:11:03;;;;;;;10.07;3.50;;;;;;;;;;5031413;28;20026;-48
2023/03/19 06:13:29;;;;;;;9.68;2.92;;;;;;;;;;5035854;28;20032;-51
2023/03/19 06:15:54;;;;;;;10.27;3.42;;;;;;;;;;5036044;28;20036;-46
2023/03/19 06:18:20;;;;;;;10.32;4.30;;;;;;;;;;5037126;28;20064;-42
2023/03/19 06:20:46;;;;;;;8.63;4.32;;;;;;;;;;5034618;28;20033;-43
2023/03/19 06:23:11;;;;;;;6.90;3.17;;;;;;;;;;5034087;28;20041;-44
2023/03/19 06:25:37;;;;;;;7.82;3.15;;;;;;;;;;5033977;28;20516;-42
2023/03/19 06:28:03;;;;;;;7.38;2.95;;;;;;;;;;5033694;28;20450;-46
2023/03/19 06:30:28;;;;;;;9.85;3.10;;;;;;;;;;5036593;28;20387;-47
2023/03/19 06:32:54;;;;;;;12.18;3.00;;;;;;;;;;5036553;28;20037;-43
2023/03/19 06:35:20;;;;;;;9.07;3.63;;;;;;;;;;5035654;28;20040;-42
2023/03/19 06:37:45;;;;;;;7.70;3.75;;;;;;;;;;5034645;28;20041;-47
2023/03/19 06:40:11;;;;;;;9.18;3.85;;;;;;;;;;5034487;28;20111;-47
2023/03/19 06:42:36;;;;;;;7.15;3.05;;;;;;;;;;5036629;28;21067;-42
2023/03/19 06:45:02;;;;;;;9.00;3.15;;;;;;;;;;5032469;28;20105;-41
2023/03/19 06:47:28;;;;;;;9.38;4.68;;;;;;;;;;5033692;28;20267;-43
2023/03/19 06:49:53;;;;;;;10.18;4.80;;;;;;;;;;5034313;28;20124;-42
2023/03/19 06:52:18;;;;;;;5.85;3.55;;;;;;;;;;5035872;28;20488;-42
2023/03/19 06:54:44;;;;;;;7.55;3.65;;;;;;;;;;5032474;28;20042;-41
2023/03/19 06:57:09;;;;;;;10.80;3.67;;;;;;;;;;5031672;28;20100;-43
2023/03/19 06:59:35;;;;;;;9.90;3.97;;;;;;;;;;5033791;28;20072;-42
2023/03/19 07:02:01;;;;;;;5.18;3.55;;;;;;;;;;5037076;28;20034;-45
2023/03/19 07:04:26;;;;;;;12.45;3.95;;;;;;;;;;5032132;28;20778;-41
2023/03/19 07:06:51;;;;;;;9.15;4.78;;;;;;;;;;5034137;28;20064;-45
2023/03/19 07:09:17;;;;;;;10.32;4.00;;;;;;;;;;5036369;28;20038;-42
2023/03/19 07:11:42;;;;;;;8.68;3.90;;;;;;;;;;5034274;28;20100;-41
2023/03/19 07:14:08;;;;;;;9.77;3.15;;;;;;;;;;5039595;28;20086;-40
2023/03/19 07:16:34;;;;;;;12.50;3.20;;;;;;;;;;5036517;28;20528;-45
2023/03/19 07:18:59;;;;;;;8.13;2.85;;;;;;;;;;5035239;28;20028;-45
2023/03/19 07:21:24;;;;;;;5.35;3.05;;;;;;;;;;5036228;28;20033;-42
2023/03/19 07:23:50;;;;;;;7.60;2.95;;;;;;;;;;5034229;28;20100;-42
2023/03/19 07:26:18;;;;;;;12.68;3.22;;;;;;;;;;5037572;28;20433;-41
2023/03/19 07:28:43;;;;;;;7.80;3.00;;;;;;;;;;5031784;28;20033;-41
2023/03/19 07:31:09;;;;;;;6.40;3.25;;;;;;;;;;5037532;28;20037;-42
2023/03/19 07:33:34;;;;;;;6.38;2.70;;;;;;;;;;5036580;28;20034;-43
2023/03/19 07:36:00;;;;;;;9.25;2.97;;;;;;;;;;5038233;28;20067;-41
2023/03/19 07:38:25;;;;;;;5.85;2.55;;;;;;;;;;5027378;28;20438;-41
2023/03/19 07:40:51;;;;;;;6.63;3.00;;;;;;;;;;5036707;28;20037;-41
2023/03/19 07:43:16;;;;;;;6.82;3.00;;;;;;;;;;5035017;28;20144;-46
2023/03/19 07:45:42;;;;;;;7.72;3.70;;;;;;;;;;5035228;28;20044;-43
2023/03/19 07:48:07;;;;;;;12.82;3.70;;;;;;;;;;5031241;28;20126;-41
2023/03/19 07:50:33;;;;;;;10.20;5.65;;;;;;;;;;5034887;28;20028;-42
2023/03/19 07:52:58;;;;;;;9.82;3.05;;;;;;;;;;5034244;28;20046;-41
2023/03/19 07:55:24;;;;;;;8.43;3.60;;;;;;;;;;5035961;28;20028;-41
2023/03/19 07:57:50;;;;;;;9.40;2.97;;;;;;;;;;5038406;28;20037;-44
2023/03/19 08:00:16;;;;;;;6.82;3.47;;;;;;;;;;5034772;28;20037;-41
2023/03/19 08:02:44;;;;;;;7.05;3.38;;;;;;;;;;5028805;28;20128;-41
2023/03/19 08:05:09;;;;;;;11.15;7.25;;;;;;;;;;5036388;28;20032;-44
2023/03/19 08:07:36;;;;;;;6.40;3.70;;;;;;;;;;5029580;28;20128;-41
2023/03/19 08:10:06;;;;;;;7.03;3.13;;;;;;;;;;5035094;28;20402;-47
2023/03/19 08:12:33;;;;;;;7.38;2.92;;;;;;;;;;5034712;28;20095;-44
2023/03/19 08:14:58;;;;;;;9.80;5.18;;;;;;;;;;5038483;28;20151;-47
2023/03/19 08:17:24;;;;;;;7.50;4.60;;;;;;;;;;5036019;28;20132;-41
2023/03/19 08:19:49;;;;;;;9.13;3.30;;;;;;;;;;5034973;28;20024;-43
2023/03/19 08:22:16;;;;;;;24.98;12.65;;;;;;;;;;5039724;28;20033;-43
2023/03/19 08:24:41;;;;;;;222.85;119.72;;;;;;;;;;5035840;28;20017;-43
2023/03/19 08:27:06;;;;;;;55.40;29.88;;;;;;;;;;5036281;28;20064;-41
2023/03/19 08:29:32;;;;;;;11.05;5.57;;;;;;;;;;5035744;28;20539;-44
2023/03/19 08:31:59;;;;;;;5.60;3.08;;;;;;;;;;5038306;28;20038;-43
2023/03/19 08:34:25;;;;;;;5.60;3.00;;;;;;;;;;5040484;28;20033;-43
2023/03/19 08:36:51;;;;;;;6.43;2.88;;;;;;;;;;5037867;28;20489;-46
2023/03/19 08:39:16;;;;;;;6.38;2.50;;;;;;;;;;5038787;28;20091;-45
2023/03/19 08:41:42;;;;;;;7.32;2.88;;;;;;;;;;5031062;28;20041;-48
2023/03/19 08:44:07;;;;;;;7.57;3.03;;;;;;;;;;5038807;28;20061;-51
2023/03/19 08:46:32;;;;;;;6.03;2.40;;;;;;;;;;5032553;28;20057;-48
2023/03/19 08:48:59;;;;;;;5.68;2.67;;;;;;;;;;5037577;28;20028;-49
2023/03/19 08:51:25;;;;;;;8.23;3.38;;;;;;;;;;5038219;28;20046;-42
2023/03/19 08:53:51;;;;;;;8.60;3.08;;;;;;;;;;5040531;28;20104;-42
2023/03/19 08:56:16;;;;;;;4.53;2.33;;;;;;;;;;5037832;28;20060;-45
2023/03/19 08:58:42;;;;;;;6.43;2.67;;;;;;;;;;5036797;28;20082;-45
2023/03/19 09:01:10;;;;;;;8.57;2.70;;;;;;;;;;5038437;28;20028;-42
2023/03/19 09:03:37;;;;;;;3.92;2.05;;;;;;;;;;5036537;28;20025;-50
2023/03/19 09:06:04;;;;;;;9.70;4.28;;;;;;;;;;5038493;28;20076;-44
2023/03/19 09:08:30;;;;;;;8.02;2.67;;;;;;;;;;5035594;28;20023;-43
2023/03/19 09:10:56;;;;;;;4.95;2.53;;;;;;;;;;5040996;28;20099;-42
2023/03/19 09:13:22;;;;;;;7.13;2.78;;;;;;;;;;5036249;28;20048;-48
2023/03/19 09:15:49;;;;;;;4.50;2.17;;;;;;;;;;5038078;28;20398;-48
2023/03/19 09:18:15;;;;;;;6.97;2.45;;;;;;;;;;5037167;28;20063;-45
2023/03/19 09:20:40;;;;;;;7.20;2.33;;;;;;;;;;5033956;28;20030;-42
2023/03/19 09:23:06;;;;;;;3.75;2.15;;;;;;;;;;5039849;28;20040;-42
2023/03/19 09:25:32;;;;;;;5.47;2.13;;;;;;;;;;5039736;28;20033;-45
2023/03/19 09:27:57;;;;;;;4.70;2.28;;;;;;;;;;5050952;28;20042;-49
2023/03/19 09:30:23;;;;;;;6.63;2.15;;;;;;;;;;5037743;28;20057;-51
2023/03/19 09:32:48;;;;;;;8.40;2.58;;;;;;;;;;5036440;28;20944;-49
2023/03/19 09:35:14;;;;;;;6.85;2.42;;;;;;;;;;5034378;28;20091;-43
2023/03/19 09:37:40;;;;;;;3.15;2.10;;;;;;;;;;5037281;28;20511;-44
2023/03/19 09:40:06;;;;;;;6.07;2.00;;;;;;;;;;5041620;28;20033;-45
2023/03/19 09:42:51;;;;;;;8.32;2.20;;;;;;;;;;5036285;28;20454;-46
2023/03/19 09:45:18;;;;;;;6.53;2.00;;;;;;;;;;5038762;28;20032;-45
2023/03/19 09:47:48;;;;;;;4.55;2.17;;;;;;;;;;5031045;28;20130;-45
2023/03/19 09:50:16;;;;;;;3.85;1.95;;;;;;;;;;5035923;28;20116;-47
2023/03/19 09:52:56;;;;;;;4.22;1.85;;;;;;;;;;5036535;28;21052;-44
2023/03/19 09:55:41;;;;;;;5.53;1.98;;;;;;;;;;5037752;28;20513;-44
2023/03/19 09:58:14;;;;;;;7.68;1.88;;;;;;;;;;5034748;28;20051;-49
2023/03/19 10:00:41;;;;;;;7.28;1.77;;;;;;;;;;5033827;28;20018;-45
2023/03/19 10:03:28;;;;;;;4.50;1.83;;;;;;;;;;5036578;28;20042;-43
2023/03/19 10:06:26;;;;;;;6.95;1.92;;;;;;;;;;5036029;28;20079;-42
2023/03/19 10:09:23;;;;;;;2.60;1.45;;;;;;;;;;5035030;28;20417;-45
2023/03/19 10:12:17;;;;;;;6.97;2.05;;;;;;;;;;5026765;28;20047;-47
2023/03/19 10:14:53;;;;;;;4.63;1.75;;;;;;;;;;5034359;28;20575;-45
2023/03/19 10:17:25;;;;;;;4.28;1.73;;;;;;;;;;5033894;28;20505;-50
2023/03/19 10:20:31;;;;;;;4.68;1.50;;;;;;;;;;5032242;28;20033;-51
2023/03/19 10:23:12;;;;;;;4.72;1.67;;;;;;;;;;4985700;28;20573;-43
2023/03/19 10:25:41;;;;;;;2.67;2.20;;;;;;;;;;4992742;28;20034;-46
2023/03/19 10:28:14;;;;;;;27.38;12.32;;;;;;;;;;4996611;28;20038;-47
2023/03/19 10:30:42;;;;;;;6.70;2.75;;;;;;;;;;4994502;28;20032;-44
2023/03/19 10:33:10;;;;;;;2.42;1.88;;;;;;;;;;4996041;28;20042;-45
2023/03/19 10:35:47;;;;;;;6.45;3.90;;;;;;;;;;4993836;28;20123;-48
2023/03/19 10:38:32;;;;;;;5.50;2.72;;;;;;;;;;4993808;28;20088;-46
2023/03/19 10:41:28;;;;;;;3.42;1.70;;;;;;;;;;4988435;28;20038;-46
2023/03/19 10:43:58;;;;;;;4.25;1.80;;;;;;;;;;4995398;28;20045;-49
2023/03/19 10:46:24;;;;;;;44.35;26.33;;;;;;;;;;4997220;28;20034;-51
2023/03/19 10:48:49;;;;;;;208.65;129.63;;;;;;;;;;4996282;28;20080;-45
2023/03/19 10:51:22;;;;;;;7.22;3.80;;;;;;;;;;4993954;28;20173;-42
2023/03/19 10:53:47;;;;;;;3.85;1.70;;;;;;;;;;4997079;28;20387;-51
2023/03/19 10:56:21;;;;;;;4.32;1.70;;;;;;;;;;4995200;28;20022;-49
2023/03/19 10:58:59;;;;;;;6.40;2.15;;;;;;;;;;4999903;28;20030;-48
2023/03/19 11:01:33;;;;;;;7.53;3.90;;;;;;;;;;5038426;28;20068;-50
2023/03/19 11:04:20;;;;;;;8.63;3.60;;;;;;;;;;5036504;28;20079;-43
2023/03/19 11:06:50;;;;;;;6.53;4.03;;;;;;;;;;5032953;28;20049;-49
2023/03/19 11:09:35;;;;;;;3.10;2.40;;;;;;;;;;5033947;28;20029;-48
2023/03/19 11:12:14;;;;;;;29.90;12.68;;;;;;;;;;5035397;28;20456;-45
2023/03/19 11:14:45;;;;;;;7.80;4.43;;;;;;;;;;5033198;28;20033;-48
2023/03/19 11:17:22;;;;;;;5.53;2.80;;;;;;;;;;5035401;28;20132;-46
2023/03/19 11:19:52;;;;;;;5.35;2.25;;;;;;;;;;5034850;28;20045;-50
2023/03/19 11:22:27;;;;;;;5.88;2.28;;;;;;;;;;5037503;28;20041;-49
2023/03/19 11:24:59;;;;;;;4.43;2.25;;;;;;;;;;5032324;28;20112;-47
2023/03/19 11:27:30;;;;;;;4.65;2.20;;;;;;;;;;5028613;28;20050;-47
2023/03/19 11:29:56;;;;;;;5.90;2.17;;;;;;;;;;5036723;28;20025;-47
2023/03/19 11:33:00;;;;;;;4.05;2.10;;;;;;;;;;5035967;28;20561;-51
2023/03/19 11:35:54;;;;;;;4.90;2.38;;;;;;;;;;4975219;28;20037;-49
2023/03/19 11:38:52;;;;;;;6.03;2.83;;;;;;;;;;4974148;28;20047;-42
2023/03/19 11:41:29;;;;;;;7.47;2.35;;;;;;;;;;4974361;28;20411;-43
2023/03/19 11:44:13;;;;;;;7.30;2.10;;;;;;;;;;4975451;28;20658;-42
2023/03/19 11:46:47;;;;;;;7.20;2.00;;;;;;;;;;4977049;28;20550;-43
2023/03/19 11:49:28;;;;;;;3.92;2.10;;;;;;;;;;4973621;28;20039;-44
2023/03/19 11:52:28;;;;;;;7.63;2.80;;;;;;;;;;4976190;28;20049;-42
2023/03/19 11:55:22;;;;;;;6.88;2.92;;;;;;;;;;4977575;28;20047;-42
2023/03/19 11:58:25;;;;;;;4.68;2.50;;;;;;;;;;4902080;29;20048;-46
2023/03/19 12:00:52;;;;;;;;;;;;;;;;;;4902445;29;20049;-43
2023/03/19 12:03:45;;;;;;;7.05;2.58;;;;;;;;;;4900941;29;20285;-41
2023/03/19 12:06:36;;;;;;;4.32;2.38;;;;;;;;;;4930098;28;20047;-45
2023/03/19 12:09:10;;;;;;;3.38;2.25;;;;;;;;;;4962994;28;20113;-43
2023/03/19 12:11:51;;;;;;;6.38;2.25;;;;;;;;;;4961312;28;20462;-42
2023/03/19 12:14:19;;;;;;;5.85;1.95;;;;;;;;;;4963193;28;20031;-42
2023/03/19 12:16:57;;;;;;;5.55;2.83;;;;;;;;;;4959621;28;20083;-43
2023/03/19 12:19:25;;;;;;;4.40;2.42;;;;;;;;;;4958047;28;20039;-42
2023/03/19 12:22:33;;;;;;;5.65;2.33;;;;;;;;;;4961763;28;20193;-43
2023/03/19 12:25:31;;;;;;;3.88;2.20;;;;;;;;;;4945303;28;20490;-42
2023/03/19 12:28:02;;;;;;;8.05;2.35;;;;;;;;;;4960646;28;20038;-43
2023/03/19 12:30:40;;;;;;;6.70;2.20;;;;;;;;;;4961918;28;20193;-50
2023/03/19 12:33:24;;;;;;;8.88;2.00;;;;;;;;;;4959953;28;20043;-48
2023/03/19 12:35:54;;;;;;;2.92;1.75;;;;;;;;;;5040442;28;20104;-46
2023/03/19 12:38:26;;;;;;;5.57;1.83;;;;;;;;;;5034893;28;20041;-49
2023/03/19 12:41:09;;;;;;;6.25;2.08;;;;;;;;;;5040371;28;20022;-45
2023/03/19 12:43:44;;;;;;;6.45;2.20;;;;;;;;;;5039033;28;20124;-43
2023/03/19 12:46:15;;;;;;;4.00;1.70;;;;;;;;;;5038755;28;20036;-48
2023/03/19 12:49:05;;;;;;;6.22;2.13;;;;;;;;;;5039587;28;20029;-48
2023/03/19 12:51:40;;;;;;;3.78;1.90;;;;;;;;;;5035960;28;20106;-42
2023/03/19 12:54:18;;;;;;;3.70;2.15;;;;;;;;;;5038436;28;20645;-49
2023/03/19 12:57:02;;;;;;;2.83;1.60;;;;;;;;;;5038067;28;20081;-46
2023/03/19 12:59:40;;;;;;;3.30;1.50;;;;;;;;;;5039328;28;20029;-44
2023/03/19 13:02:28;;;;;;;6.03;1.92;;;;;;;;;;5036462;28;20131;-46
2023/03/19 13:05:06;;;;;;;5.07;1.77;;;;;;;;;;5037184;28;20033;-49
2023/03/19 13:07:40;;;;;;;3.92;1.80;;;;;;;;;;5034759;28;20041;-41
2023/03/19 13:10:12;;;;;;;4.05;1.65;;;;;;;;;;5035086;28;20044;-43
2023/03/19 13:12:39;;;;;;;3.65;1.88;;;;;;;;;;5039216;28;20042;-48
2023/03/19 13:15:08;;;;;;;4.00;1.73;;;;;;;;;;5039590;28;20033;-47
2023/03/19 13:18:05;;;;;;;4.00;1.75;;;;;;;;;;5039047;28;20037;-47
2023/03/19 13:21:17;;;;;;;5.90;1.92;;;;;;;;;;5036631;28;20112;-44
2023/03/19 13:23:46;;;;;;;4.53;2.45;;;;;;;;;;4971606;28;20151;-42
2023/03/19 13:26:13;;;;;;;3.42;2.22;;;;;;;;;;4972875;28;20043;-47
2023/03/19 13:29:00;;;;;;;4.90;1.83;;;;;;;;;;4979167;28;20039;-45
2023/03/19 13:31:27;;;;;;;4.65;1.88;;;;;;;;;;4976099;28;20046;-46
2023/03/19 13:34:15;;;;;;;6.15;1.77;;;;;;;;;;4975582;28;20038;-43
2023/03/19 13:36:43;;;;;;;4.63;1.58;;;;;;;;;;4974755;28;20054;-48
2023/03/19 13:39:20;;;;;;;3.88;1.50;;;;;;;;;;4974504;28;20476;-42
2023/03/19 13:41:56;;;;;;;4.70;1.65;;;;;;;;;;4971548;28;20530;-44
2023/03/19 13:44:31;;;;;;;2.03;1.30;;;;;;;;;;4975251;28;20543;-45
2023/03/19 13:47:00;;;;;;;5.03;1.83;;;;;;;;;;4974355;28;20046;-47
2023/03/19 13:49:26;;;;;;;3.88;1.88;;;;;;;;;;4979091;28;20038;-46
2023/03/19 13:52:17;;;;;;;6.07;1.70;;;;;;;;;;4977630;28;20070;-41
2023/03/19 13:54:47;;;;;;;5.95;2.15;;;;;;;;;;5015509;28;20052;-44
2023/03/19 13:57:13;;;;;;;4.53;2.10;;;;;;;;;;5032590;28;20045;-43
2023/03/19 13:59:44;;;;;;;4.47;1.85;;;;;;;;;;5037134;28;20061;-43
2023/03/19 14:02:22;;;;;;;4.18;2.10;;;;;;;;;;5032206;28;20514;-43
2023/03/19 14:05:15;;;;;;;6.05;2.13;;;;;;;;;;5030412;28;20087;-40
2023/03/19 14:07:43;;;;;;;5.43;2.17;;;;;;;;;;5034082;28;20040;-41
2023/03/19 14:10:20;;;;;;;6.93;1.88;;;;;;;;;;5035631;28;20457;-44
2023/03/19 14:12:47;;;;;;;3.22;2.00;;;;;;;;;;5037494;28;20025;-42
2023/03/19 14:15:12;;;;;;;3.97;1.92;;;;;;;;;;5035040;28;20116;-45
2023/03/19 14:17:50;;;;;;;4.63;1.90;;;;;;;;;;5033660;28;20136;-45
2023/03/19 14:20:15;;;;;;;3.83;2.65;;;;;;;;;;5036337;28;20049;-41
2023/03/19 14:22:43;;;;;;;6.32;2.45;;;;;;;;;;5034767;28;20047;-43
2023/03/19 14:25:23;;;;;;;6.03;2.15;;;;;;;;;;5032780;28;20057;-43
2023/03/19 14:27:53;;;;;;;5.57;2.63;;;;;;;;;;5030786;28;20072;-41
2023/03/19 14:30:35;;;;;;;7.00;2.60;;;;;;;;;;5034349;28;20041;-42
2023/03/19 14:33:05;;;;;;;5.28;2.22;;;;;;;;;;5037489;28;20163;-41
2023/03/19 14:35:39;;;;;;;6.70;2.60;;;;;;;;;;5037341;28;20131;-42
2023/03/19 14:38:22;;;;;;;10.52;2.92;;;;;;;;;;5033420;28;20096;-43
2023/03/19 14:40:50;;;;;;;;;;;;;;;;;;5040096;28;20048;-41
2023/03/19 14:43:35;;;;;;;4.60;2.38;;;;;;;;;;5037697;28;20586;-46
2023/03/19 14:46:02;;;;;;;6.90;1.98;;;;;;;;;;5034970;28;20487;-40
2023/03/19 14:49:05;;;;;;;7.47;2.30;;;;;;;;;;5034628;28;20153;-43
2023/03/19 14:51:52;;;;;;;4.60;2.38;;;;;;;;;;5033098;28;20050;-41
2023/03/19 14:54:29;;;;;;;3.72;2.20;;;;;;;;;;5039616;28;20112;-44
2023/03/19 14:56:56;;;;;;;7.53;3.72;;;;;;;;;;5035854;28;20045;-41
2023/03/19 14:59:21;;;;;;;6.63;2.25;;;;;;;;;;5039102;28;20037;-40